Capitol Logistics 2298


KMIA
Miami International Airport
Miami, Florida, US
KSDF
Louisville International Airport-Standiford Field
Louisville, Kentucky, US

Activity Log

Date Flight Route Aircraft Duration
12/01/2019 CPX2298 WINCO2 WINCO CHRRI Q118 KPASA Q118 ATL VXV GREDY MAUDD6 B763 2h 12m

Route Details

Aircraft Information
Primary: Boeing 747-400BCF
Backup: Boeing 767-300BDSF
Date Restrictions
Between:Nov 16, 2019
Dec 31, 2019
Route Data
Distance: 794nm
Sched. Duration: 2h 16m
Avg. Duration: 2h 12m (-4m)
Times Flown: 1
Recm'd Route: WINCO2 WINCO CHRRI Q118 KPASA Q118 ATL VXV GREDY MAUDD6
Planned Altitude: 34,000ft
Origin Wx: KMIA 060953Z 04004KT 10SM FEW008 BKN025 BKN050 OVC250 23/22 A2996 RMK AO2 RAB11E29 SLP145 P0000 T02330217
Dest. Wx: KSDF 060956Z 03004KT 10SM SCT090 12/09 A3009 RMK AO2 SLP189 T01220094
Notes: SEASONAL FLIGHT | UPS SURGE OPS CONTRACT

Financial History
Total Freight: 112,816lbs
Average Load: 112,816lbs/flt
Fuel Used: 25,586lbs
Avg. Fuel Used: 25,586lbs/flt
Fuel Expense: $31,471
Avg. Fuel Expense: $31,471
Avg. Fuel Cost: $1.23/lbs
Total Gross Income: $213,222
Pilot Pay: $229
Total Expenses: $23,080
Total Revenue: $158,053
Average Revenue: $213,222.23